createdAt,value
2022-11-22T00:01:15.657Z,-0.48
2022-11-22T00:03:48.649Z,-0.45
2022-11-22T00:06:20.610Z,-0.44
2022-11-22T00:08:52.375Z,-0.41
2022-11-22T00:11:24.316Z,-0.38
2022-11-22T00:13:56.203Z,-0.33
2022-11-22T00:16:28.184Z,-0.34
2022-11-22T00:18:59.918Z,-0.31
2022-11-22T00:21:32.191Z,-0.29
2022-11-22T00:24:04.229Z,-0.27
2022-11-22T00:26:35.949Z,-0.24
2022-11-22T00:29:07.653Z,-0.21
2022-11-22T00:31:38.928Z,-0.20
2022-11-22T00:34:10.187Z,-0.16
2022-11-22T00:36:41.529Z,-0.14
2022-11-22T00:39:12.793Z,-0.13
2022-11-22T00:41:44.060Z,-0.10
2022-11-22T00:44:15.312Z,-0.10
2022-11-22T00:46:46.597Z,-0.08
2022-11-22T00:49:17.964Z,-0.06
2022-11-22T00:51:49.209Z,-0.03
2022-11-22T00:54:20.467Z,-0.02
2022-11-22T00:56:51.819Z,0.04
2022-11-22T00:59:23.084Z,0.07
2022-11-22T01:01:54.355Z,0.08
2022-11-22T01:04:25.755Z,0.09
2022-11-22T01:06:57.013Z,0.12
2022-11-22T01:09:28.577Z,0.12
2022-11-22T01:12:00.091Z,0.14
2022-11-22T01:14:31.572Z,0.15
2022-11-22T01:17:03.071Z,0.11
2022-11-22T01:19:34.432Z,0.12
2022-11-22T01:22:05.771Z,0.07
2022-11-22T01:24:37.066Z,0.11
2022-11-22T01:27:08.344Z,0.18
2022-11-22T01:29:39.632Z,0.17
2022-11-22T01:32:10.903Z,0.21
2022-11-22T01:34:42.169Z,0.22
2022-11-22T01:37:13.444Z,0.24
2022-11-22T01:39:44.718Z,0.24
2022-11-22T01:42:16.201Z,0.28
2022-11-22T01:44:48.282Z,0.29
2022-11-22T01:47:25.244Z,0.30
2022-11-22T01:50:07.006Z,0.32
2022-11-22T01:52:38.295Z,0.33
2022-11-22T01:55:12.808Z,0.32
2022-11-22T01:57:45.344Z,0.32
2022-11-22T02:00:17.671Z,0.30
2022-11-22T02:02:53.108Z,0.32
2022-11-22T02:05:28.973Z,0.36
2022-11-22T02:08:17.596Z,0.38
2022-11-22T02:10:51.768Z,0.41
2022-11-22T02:13:24.361Z,0.42
2022-11-22T02:15:56.541Z,0.38
2022-11-22T02:18:27.948Z,0.43
2022-11-22T02:20:59.573Z,0.41
2022-11-22T02:24:00.211Z,0.45
2022-11-22T02:26:32.249Z,0.42
2022-11-22T02:29:06.382Z,0.45
2022-11-22T02:31:45.991Z,0.44
2022-11-22T02:34:17.243Z,0.48
2022-11-22T02:36:51.314Z,0.49
2022-11-22T02:39:29.254Z,0.48
2022-11-22T02:42:01.598Z,0.50
2022-11-22T02:44:33.555Z,0.49
2022-11-22T02:47:04.872Z,0.52
2022-11-22T02:49:36.143Z,0.54
2022-11-22T02:52:07.396Z,0.52
2022-11-22T02:54:38.628Z,0.56
2022-11-22T02:57:09.909Z,0.53
2022-11-22T02:59:41.155Z,0.59
2022-11-22T03:02:12.413Z,0.56
2022-11-22T03:04:43.669Z,0.55
2022-11-22T03:07:14.976Z,0.56
2022-11-22T03:09:46.370Z,0.57
2022-11-22T03:12:17.631Z,0.60
2022-11-22T03:14:48.925Z,0.59
2022-11-22T03:17:20.213Z,0.60
2022-11-22T03:19:51.476Z,0.62
2022-11-22T03:22:22.787Z,0.67
2022-11-22T03:24:54.030Z,0.65
2022-11-22T03:27:25.288Z,0.68
2022-11-22T03:29:56.569Z,0.69
2022-11-22T03:32:27.904Z,0.72
2022-11-22T03:34:59.168Z,0.72
2022-11-22T03:37:30.452Z,0.74
2022-11-22T03:40:01.921Z,0.73
2022-11-22T03:42:33.241Z,0.75
2022-11-22T03:45:04.919Z,0.73
2022-11-22T03:47:36.168Z,0.72
2022-11-22T03:50:07.780Z,0.69
2022-11-22T03:52:39.043Z,0.59
2022-11-22T03:55:10.310Z,0.68
2022-11-22T03:57:41.577Z,0.68
2022-11-22T04:00:13.337Z,0.66
2022-11-22T04:02:44.635Z,0.65
2022-11-22T04:05:16.034Z,0.68
2022-11-22T04:07:47.521Z,0.69
2022-11-22T04:10:22.267Z,0.67
2022-11-22T04:13:00.079Z,0.69
2022-11-22T04:15:31.452Z,0.68
2022-11-22T04:18:02.943Z,0.70
2022-11-22T04:20:52.734Z,0.60
2022-11-22T04:23:30.702Z,0.71
2022-11-22T04:26:05.020Z,0.72
2022-11-22T04:29:07.476Z,0.72
2022-11-22T04:31:46.359Z,0.73
2022-11-22T04:34:17.633Z,0.72
2022-11-22T04:36:48.966Z,0.76
2022-11-22T04:39:20.303Z,0.79
2022-11-22T04:42:14.267Z,0.78
2022-11-22T04:44:45.966Z,0.79
2022-11-22T04:47:37.045Z,0.79
2022-11-22T04:50:28.732Z,0.78
2022-11-22T04:52:59.984Z,0.76
2022-11-22T04:55:31.333Z,0.76
2022-11-22T04:58:02.702Z,0.78
2022-11-22T05:00:34.373Z,0.80
2022-11-22T05:03:06.813Z,0.79
2022-11-22T05:05:40.146Z,0.78
2022-11-22T05:08:12.169Z,0.81
2022-11-22T05:10:59.240Z,0.80
2022-11-22T05:13:36.160Z,0.82
2022-11-22T05:16:10.011Z,0.83
2022-11-22T05:18:42.078Z,0.84
2022-11-22T05:21:14.483Z,0.85
2022-11-22T05:23:54.695Z,0.84
2022-11-22T05:26:34.438Z,0.86
2022-11-22T05:29:08.100Z,0.89
2022-11-22T05:31:39.979Z,0.87
2022-11-22T05:34:11.235Z,0.81
2022-11-22T05:36:42.545Z,0.87
2022-11-22T05:39:13.806Z,0.88
2022-11-22T05:41:55.767Z,0.88
2022-11-22T05:44:27.288Z,0.92
2022-11-22T05:46:58.524Z,0.92
2022-11-22T05:49:30.054Z,0.91
2022-11-22T05:52:02.832Z,0.90
2022-11-22T05:54:34.154Z,0.93
2022-11-22T05:57:06.320Z,0.97
2022-11-22T05:59:42.568Z,1.00
2022-11-22T06:02:15.356Z,1.01
2022-11-22T06:04:46.685Z,1.03
2022-11-22T06:07:18.100Z,1.04
2022-11-22T06:09:49.383Z,1.03
2022-11-22T06:12:20.628Z,1.08
2022-11-22T06:14:51.909Z,1.11
2022-11-22T06:17:23.313Z,1.11
2022-11-22T06:19:54.568Z,1.15
2022-11-22T06:22:26.331Z,1.15
2022-11-22T06:24:57.624Z,1.14
2022-11-22T06:27:28.870Z,1.19
2022-11-22T06:30:00.152Z,1.18
2022-11-22T06:32:34.984Z,1.22
2022-11-22T06:35:06.641Z,1.23
2022-11-22T06:37:37.888Z,1.24
2022-11-22T06:40:11.621Z,1.25
2022-11-22T06:42:42.889Z,1.19
2022-11-22T06:45:14.168Z,1.26
2022-11-22T06:47:45.424Z,1.29
2022-11-22T06:50:21.587Z,1.32
2022-11-22T06:52:53.481Z,1.34
2022-11-22T06:55:48.952Z,1.33
2022-11-22T06:58:15.985Z,1.34
2022-11-22T07:00:47.262Z,1.40
2022-11-22T07:03:18.555Z,1.41
2022-11-22T07:05:51.208Z,1.39
2022-11-22T07:08:23.698Z,1.43
2022-11-22T07:10:55.030Z,1.45
2022-11-22T07:13:26.999Z,1.41
2022-11-22T07:16:00.194Z,1.45
2022-11-22T07:18:32.546Z,1.48
2022-11-22T07:21:12.854Z,1.49
2022-11-22T07:23:46.811Z,1.52
2022-11-22T07:26:19.327Z,1.53
2022-11-22T07:28:50.653Z,1.55
2022-11-22T07:31:21.967Z,1.53
2022-11-22T07:33:56.300Z,1.54
2022-11-22T07:36:29.563Z,1.57
2022-11-22T07:39:02.679Z,1.55
2022-11-22T07:41:33.957Z,1.59
2022-11-22T07:44:05.284Z,1.57
2022-11-22T07:46:36.569Z,1.60
2022-11-22T07:49:13.789Z,1.68
2022-11-22T07:51:45.063Z,1.69
2022-11-22T07:54:16.340Z,1.75
2022-11-22T07:56:47.656Z,1.68
2022-11-22T07:59:19.036Z,1.74
2022-11-22T08:01:50.346Z,1.77
2022-11-22T08:04:21.665Z,1.79
2022-11-22T08:06:52.943Z,1.82
2022-11-22T08:09:24.208Z,1.91
2022-11-22T08:11:55.626Z,1.93
2022-11-22T08:14:27.179Z,1.94
2022-11-22T08:16:58.572Z,1.99
2022-11-22T08:19:31.155Z,2.01
2022-11-22T08:22:02.612Z,2.01
2022-11-22T08:24:33.945Z,2.00
2022-11-22T08:27:05.348Z,2.03
2022-11-22T08:29:36.716Z,2.04
2022-11-22T08:32:08.011Z,2.04
2022-11-22T08:34:44.137Z,2.08
2022-11-22T08:37:18.097Z,2.10
2022-11-22T08:39:49.331Z,2.14
2022-11-22T08:42:20.612Z,2.18
2022-11-22T08:44:51.858Z,2.19
2022-11-22T08:47:23.163Z,2.24
2022-11-22T08:49:54.425Z,2.27
2022-11-22T08:52:25.697Z,2.31
2022-11-22T08:54:56.977Z,2.28
2022-11-22T08:57:28.239Z,2.33
2022-11-22T08:59:59.885Z,2.36
2022-11-22T09:02:31.208Z,2.40
2022-11-22T09:05:02.685Z,2.43
2022-11-22T09:10:25.896Z,2.50
2022-11-22T09:12:57.513Z,2.50
2022-11-22T09:15:28.809Z,2.50
2022-11-22T09:18:02.046Z,2.47
2022-11-22T09:20:33.324Z,2.54
2022-11-22T09:23:04.770Z,2.53
2022-11-22T09:25:36.122Z,2.59
2022-11-22T09:28:07.473Z,2.58
2022-11-22T09:30:38.731Z,2.58
2022-11-22T09:33:10.195Z,2.65
2022-11-22T09:35:41.518Z,2.70
2022-11-22T09:38:12.760Z,2.74
2022-11-22T09:40:47.286Z,2.80
2022-11-22T09:43:36.807Z,2.90
2022-11-22T09:46:29.742Z,2.99
2022-11-22T09:49:25.692Z,2.98
2022-11-22T09:52:07.707Z,2.97
2022-11-22T09:54:48.195Z,3.02
2022-11-22T09:57:24.730Z,3.13
2022-11-22T10:00:04.338Z,3.23
2022-11-22T10:02:59.435Z,3.33
2022-11-22T10:05:52.959Z,3.49
2022-11-22T10:08:57.169Z,3.59
2022-11-22T10:11:39.741Z,3.70
2022-11-22T10:14:30.006Z,3.77
2022-11-22T10:17:08.141Z,3.80
2022-11-22T10:19:45.694Z,3.86
2022-11-22T10:22:16.994Z,3.97
2022-11-22T10:24:48.268Z,4.01
2022-11-22T10:27:19.611Z,4.07
2022-11-22T10:29:57.925Z,4.12
2022-11-22T10:32:39.242Z,4.20
2022-11-22T10:35:13.789Z,4.25
2022-11-22T10:38:01.712Z,4.25
2022-11-22T10:40:50.498Z,4.22
2022-11-22T10:43:33.926Z,4.21
2022-11-22T10:46:32.494Z,4.16
2022-11-22T10:49:18.877Z,4.17
2022-11-22T10:52:04.312Z,4.19
2022-11-22T10:54:52.665Z,4.24
2022-11-22T10:57:38.651Z,4.26
2022-11-22T11:00:21.516Z,4.24
2022-11-22T11:03:03.425Z,4.22
2022-11-22T11:09:36.115Z,4.13
2022-11-22T11:11:42.741Z,4.13
2022-11-22T11:14:26.516Z,4.14
2022-11-22T11:16:59.241Z,4.17
2022-11-22T11:19:37.543Z,4.15
2022-11-22T11:22:08.768Z,4.19
2022-11-22T11:24:40.711Z,4.18
2022-11-22T11:27:12.448Z,4.23
2022-11-22T11:29:50.620Z,4.28
2022-11-22T11:32:21.978Z,4.30
2022-11-22T11:35:04.051Z,4.36
2022-11-22T11:37:37.963Z,4.45
2022-11-22T11:40:32.788Z,4.51
2022-11-22T11:43:20.064Z,4.51
2022-11-22T11:45:51.849Z,4.50
2022-11-22T11:48:35.094Z,4.53
2022-11-22T11:51:37.009Z,4.50
2022-11-22T11:54:15.864Z,4.50
2022-11-22T11:56:49.196Z,4.58
2022-11-22T11:59:39.759Z,4.70
2022-11-22T12:02:15.238Z,4.76
2022-11-22T12:05:00.836Z,4.78
2022-11-22T12:07:35.215Z,4.77
2022-11-22T12:10:45.364Z,4.75
2022-11-22T12:13:30.220Z,4.80
2022-11-22T12:16:15.939Z,4.82
2022-11-22T12:18:58.812Z,4.85
2022-11-22T12:21:53.206Z,4.83
2022-11-22T12:25:09.454Z,4.91
2022-11-22T12:27:22.629Z,4.88
2022-11-22T12:29:53.952Z,4.90
2022-11-22T12:32:28.164Z,4.93
2022-11-22T12:35:05.066Z,4.93
2022-11-22T12:37:41.389Z,4.88
2022-11-22T12:40:16.525Z,4.91
2022-11-22T12:42:51.827Z,4.89
2022-11-22T12:45:40.402Z,4.85
2022-11-22T12:48:36.901Z,4.86
2022-11-22T12:51:45.343Z,4.95
2022-11-22T12:54:22.339Z,5.04
2022-11-22T12:56:58.174Z,5.08
2022-11-22T12:59:38.940Z,5.08
2022-11-22T13:02:20.095Z,5.13
2022-11-22T13:04:58.988Z,5.21
2022-11-22T13:07:50.617Z,5.29
2022-11-22T13:10:38.517Z,5.33
2022-11-22T13:13:27.719Z,5.33
2022-11-22T13:16:02.723Z,5.30
2022-11-22T13:18:41.934Z,5.30
2022-11-22T13:21:30.728Z,5.32
2022-11-22T13:24:07.855Z,5.31
2022-11-22T13:26:44.638Z,5.22
2022-11-22T13:29:23.513Z,5.15
2022-11-22T13:32:07.225Z,5.11
2022-11-22T13:35:06.911Z,5.08
2022-11-22T13:37:50.643Z,5.03
2022-11-22T13:40:29.692Z,5.05
2022-11-22T13:43:16.698Z,5.12
2022-11-22T13:46:04.958Z,5.16
2022-11-22T13:48:38.937Z,5.22
2022-11-22T13:51:14.205Z,5.24
2022-11-22T13:53:47.884Z,5.23
2022-11-22T13:56:22.247Z,5.28
2022-11-22T13:59:14.189Z,5.26
2022-11-22T14:01:45.558Z,5.23
2022-11-22T14:04:16.932Z,5.16
2022-11-22T14:06:49.483Z,5.11
2022-11-22T14:09:44.047Z,4.97
2022-11-22T14:12:29.804Z,4.99
2022-11-22T14:15:23.035Z,4.93
2022-11-22T14:18:26.176Z,4.91
2022-11-22T14:21:04.408Z,4.86
2022-11-22T14:23:57.528Z,4.80
2022-11-22T14:26:50.866Z,4.77
2022-11-22T14:29:37.115Z,4.77
2022-11-22T14:32:15.993Z,4.79
2022-11-22T14:35:05.527Z,4.80
2022-11-22T14:37:56.684Z,4.80
2022-11-22T14:40:32.953Z,4.75
2022-11-22T14:43:05.907Z,4.70
2022-11-22T14:45:55.173Z,4.66
2022-11-22T14:48:42.876Z,4.55
2022-11-22T14:51:29.251Z,4.60
2022-11-22T14:54:16.120Z,4.55
2022-11-22T14:56:48.305Z,4.50
2022-11-22T14:59:54.082Z,4.45
2022-11-22T15:02:44.903Z,4.41
2022-11-22T15:09:13.452Z,4.34
2022-11-22T15:09:13.832Z,4.28
2022-11-22T15:11:49.770Z,4.23
2022-11-22T15:58:18.421Z,3.78
2022-11-22T16:00:49.988Z,3.74
2022-11-22T16:03:38.886Z,3.74
2022-11-22T16:06:15.210Z,3.77
2022-11-22T16:08:58.498Z,3.78
2022-11-22T16:11:33.851Z,3.72
2022-11-22T16:14:39.877Z,3.75
2022-11-22T16:17:25.294Z,3.73
2022-11-22T16:20:30.806Z,3.64
2022-11-22T16:23:11.860Z,3.66
2022-11-22T16:25:50.525Z,3.67
2022-11-22T16:28:27.780Z,3.65
2022-11-22T16:31:16.816Z,3.64
2022-11-22T16:33:48.451Z,3.60
2022-11-22T16:36:21.900Z,3.58
2022-11-22T16:38:53.221Z,3.57
2022-11-22T16:41:26.609Z,3.58
2022-11-22T16:44:03.903Z,3.59
2022-11-22T16:46:35.184Z,3.56
2022-11-22T16:49:32.945Z,3.55
2022-11-22T16:52:04.573Z,3.52
2022-11-22T16:54:35.852Z,3.48
2022-11-22T16:57:15.089Z,3.51
2022-11-22T16:59:46.450Z,3.49
2022-11-22T17:02:17.844Z,3.50
2022-11-22T17:04:49.351Z,3.44
2022-11-22T17:07:20.778Z,3.47
2022-11-22T17:09:53.025Z,3.47
2022-11-22T17:12:32.057Z,3.48
2022-11-22T17:15:05.275Z,3.46
2022-11-22T17:17:36.737Z,3.45
2022-11-22T17:20:08.606Z,3.46
2022-11-22T17:22:40.707Z,3.49
2022-11-22T17:25:13.667Z,3.47
2022-11-22T17:27:48.057Z,3.43
2022-11-22T17:30:22.806Z,3.41
2022-11-22T17:32:54.071Z,3.39
2022-11-22T17:35:25.956Z,3.38
2022-11-22T17:37:57.287Z,3.37
2022-11-22T17:40:28.579Z,3.35
2022-11-22T17:43:01.466Z,3.35
2022-11-22T17:45:32.812Z,3.32
2022-11-22T17:48:04.472Z,3.37
2022-11-22T17:50:35.888Z,3.33
2022-11-22T17:53:07.171Z,3.34
2022-11-22T17:56:08.520Z,3.30
2022-11-22T17:58:30.446Z,3.29
2022-11-22T18:01:09.775Z,3.27
2022-11-22T18:03:42.125Z,3.30
2022-11-22T18:06:14.930Z,3.27
2022-11-22T18:08:47.348Z,3.19
2022-11-22T18:11:18.883Z,3.15
2022-11-22T18:13:50.172Z,3.08
2022-11-22T18:16:27.827Z,3.04
2022-11-22T18:19:00.569Z,3.04
2022-11-22T18:21:33.193Z,2.98
2022-11-22T18:24:08.328Z,2.85
2022-11-22T18:26:40.983Z,2.81
2022-11-22T18:32:05.304Z,2.60
2022-11-22T18:34:36.749Z,2.56
2022-11-22T18:37:08.200Z,2.50
2022-11-22T18:39:40.489Z,2.39
2022-11-22T18:42:14.714Z,2.33
2022-11-22T18:44:46.007Z,2.26
2022-11-22T18:47:17.314Z,2.26
2022-11-22T18:49:48.581Z,2.26
2022-11-22T18:52:19.851Z,2.23
2022-11-22T18:54:51.512Z,2.25
2022-11-22T18:57:22.881Z,2.30
2022-11-22T18:59:54.319Z,2.39
2022-11-22T19:02:27.270Z,2.46
2022-11-22T19:04:58.577Z,2.49
2022-11-22T19:07:30.241Z,2.56
2022-11-22T19:10:02.292Z,2.63
2022-11-22T19:12:33.712Z,2.66
2022-11-22T19:15:06.279Z,2.65
2022-11-22T19:17:40.664Z,2.68
2022-11-22T19:20:32.059Z,2.66
2022-11-22T19:23:04.904Z,2.68
2022-11-22T19:25:36.205Z,2.62
2022-11-22T19:28:07.473Z,2.63
2022-11-22T19:30:42.926Z,2.59
2022-11-22T19:33:17.064Z,2.53
2022-11-22T19:35:58.268Z,2.45
2022-11-22T19:38:29.611Z,2.37
2022-11-22T19:41:01.031Z,2.25
2022-11-22T19:43:32.310Z,2.23
2022-11-22T19:46:04.720Z,2.15
2022-11-22T19:48:39.132Z,2.06
2022-11-22T19:51:15.267Z,2.04
2022-11-22T19:53:46.642Z,1.99
2022-11-22T19:56:19.536Z,1.95
2022-11-22T19:58:55.860Z,1.90
2022-11-22T20:01:29.753Z,1.85
2022-11-22T20:04:05.856Z,1.80
2022-11-22T20:06:37.343Z,1.72
2022-11-22T20:09:11.787Z,1.76
2022-11-22T20:11:44.269Z,1.73
2022-11-22T20:14:15.541Z,1.76
2022-11-22T20:16:46.924Z,1.77
2022-11-22T20:19:18.202Z,1.81
2022-11-22T20:21:49.544Z,1.86
2022-11-22T20:24:21.142Z,1.81
2022-11-22T20:26:52.442Z,1.73
2022-11-22T20:29:24.903Z,1.68
2022-11-22T20:31:56.725Z,1.60
2022-11-22T20:34:31.258Z,1.52
2022-11-22T20:37:03.352Z,1.51
2022-11-22T20:39:36.898Z,1.44
2022-11-22T20:42:33.040Z,1.46
2022-11-22T20:45:00.227Z,1.44
2022-11-22T20:47:31.664Z,1.45
2022-11-22T20:50:03.321Z,1.40
2022-11-22T20:52:34.705Z,1.41
2022-11-22T20:55:06.539Z,1.39
2022-11-22T20:57:38.384Z,1.44
2022-11-22T21:00:11.015Z,1.45
2022-11-22T21:02:42.314Z,1.48
2022-11-22T21:05:13.735Z,1.48
2022-11-22T21:07:45.076Z,1.53
2022-11-22T21:10:16.471Z,1.52
2022-11-22T21:12:47.744Z,1.57
2022-11-22T21:15:19.161Z,1.64
2022-11-22T21:18:17.174Z,1.71
2022-11-22T21:20:41.824Z,1.77
2022-11-22T21:23:13.074Z,1.84
2022-11-22T21:25:44.588Z,1.88
2022-11-22T21:28:16.266Z,2.01
2022-11-22T21:30:55.961Z,2.10
2022-11-22T21:33:29.953Z,2.24
2022-11-22T21:36:03.082Z,2.33
2022-11-22T21:38:35.389Z,2.43
2022-11-22T21:44:01.536Z,2.57
2022-11-22T21:46:33.463Z,2.63
2022-11-22T21:49:04.965Z,2.64
2022-11-22T21:51:36.278Z,2.70
2022-11-22T21:54:07.921Z,2.73
2022-11-22T21:56:39.321Z,2.81
2022-11-22T21:59:11.227Z,2.84
2022-11-22T22:01:42.543Z,2.86
2022-11-22T22:04:13.914Z,2.88
2022-11-22T22:06:46.377Z,2.85
2022-11-22T22:09:17.704Z,2.90
2022-11-22T22:11:48.980Z,2.93
2022-11-22T22:14:20.219Z,2.91
2022-11-22T22:16:51.497Z,2.94
2022-11-22T22:19:22.736Z,3.01
2022-11-22T22:21:53.995Z,3.06
2022-11-22T22:24:25.409Z,3.14
2022-11-22T22:26:56.784Z,3.17
2022-11-22T22:29:28.355Z,3.17
2022-11-22T22:31:59.905Z,3.23
2022-11-22T22:34:31.186Z,3.30
2022-11-22T22:37:02.728Z,3.37
2022-11-22T22:39:34.059Z,3.39
2022-11-22T22:42:05.440Z,3.46
2022-11-22T22:44:36.774Z,3.47
2022-11-22T22:47:08.044Z,3.52
2022-11-22T22:49:39.418Z,3.56
2022-11-22T22:52:10.677Z,3.59
2022-11-22T22:54:41.918Z,3.66
2022-11-22T22:57:13.177Z,3.70
2022-11-22T22:59:44.417Z,3.71
2022-11-22T23:02:15.805Z,3.79
2022-11-22T23:04:47.075Z,3.82
2022-11-22T23:07:18.397Z,3.85
2022-11-22T23:09:49.683Z,3.88
2022-11-22T23:12:21.064Z,3.90
2022-11-22T23:14:52.345Z,3.96
2022-11-22T23:17:24.545Z,4.01
2022-11-22T23:19:55.783Z,4.00
2022-11-22T23:22:27.081Z,4.07
2022-11-22T23:24:58.323Z,4.10
2022-11-22T23:27:29.575Z,4.17
2022-11-22T23:30:00.891Z,4.20
2022-11-22T23:32:32.294Z,4.19
2022-11-22T23:35:03.667Z,4.24
2022-11-22T23:37:34.933Z,4.26
2022-11-22T23:40:06.872Z,4.28
2022-11-22T23:42:38.165Z,4.25
2022-11-22T23:45:09.931Z,4.30
2022-11-22T23:47:41.201Z,4.32
2022-11-22T23:50:12.454Z,4.37
2022-11-22T23:52:43.819Z,4.40
2022-11-22T23:55:18.475Z,4.45
2022-11-22T23:57:50.554Z,4.47
